createdAt,value
2023-02-24T00:01:41.041Z,100367.06
2023-02-24T00:04:10.314Z,100353.41
2023-02-24T00:06:41.174Z,100353.56
2023-02-24T00:09:18.171Z,100413.00
2023-02-24T00:11:48.735Z,100407.03
2023-02-24T00:14:16.947Z,100362.91
2023-02-24T00:16:45.366Z,100393.13
2023-02-24T00:19:19.490Z,100430.56
2023-02-24T00:21:46.522Z,100428.00
2023-02-24T00:24:13.922Z,100423.56
2023-02-24T00:26:41.086Z,100432.94
2023-02-24T00:29:10.872Z,100449.06
2023-02-24T00:31:41.682Z,100417.06
2023-02-24T00:34:09.483Z,100436.97
2023-02-24T00:36:36.213Z,100395.88
2023-02-24T00:39:09.552Z,100461.53
2023-02-24T00:41:42.391Z,100416.66
2023-02-24T00:44:12.482Z,100410.00
2023-02-24T00:46:43.259Z,100413.03
2023-02-24T00:49:17.368Z,100404.44
2023-02-24T00:51:49.439Z,100389.78
2023-02-24T00:54:16.873Z,100418.69
2023-02-24T00:56:45.418Z,100370.63
2023-02-24T00:59:14.653Z,100387.63
2023-02-24T01:01:45.348Z,100442.97
2023-02-24T01:04:13.307Z,100442.88
2023-02-24T01:06:43.589Z,100391.44
2023-02-24T01:09:14.862Z,100362.19
2023-02-24T01:12:01.572Z,100435.91
2023-02-24T01:14:31.746Z,100436.41
2023-02-24T01:16:59.083Z,100420.94
2023-02-24T01:19:31.895Z,100438.13
2023-02-24T01:22:01.209Z,100444.75
2023-02-24T01:24:31.648Z,100465.69
2023-02-24T01:26:58.369Z,100459.63
2023-02-24T01:29:27.805Z,100424.41
2023-02-24T01:31:58.395Z,100393.56
2023-02-24T01:34:27.864Z,100431.22
2023-02-24T01:36:55.000Z,100403.84
2023-02-24T01:39:21.946Z,100401.59
2023-02-24T01:41:53.092Z,100453.75
2023-02-24T01:44:22.531Z,100460.25
2023-02-24T01:46:51.857Z,100402.06
2023-02-24T01:49:21.279Z,100417.53
2023-02-24T01:51:59.147Z,100438.06
2023-02-24T01:54:32.318Z,100457.59
2023-02-24T01:56:59.932Z,100471.66
2023-02-24T01:59:30.343Z,100394.22
2023-02-24T02:02:07.060Z,100473.63
2023-02-24T02:04:45.192Z,100439.84
2023-02-24T02:07:15.881Z,100419.69
2023-02-24T02:09:44.303Z,100403.13
2023-02-24T02:12:11.409Z,100458.03
2023-02-24T02:14:43.298Z,100435.53
2023-02-24T02:17:12.913Z,100485.03
2023-02-24T02:19:47.055Z,100428.38
2023-02-24T02:22:31.915Z,100469.66
2023-02-24T02:24:58.529Z,100468.91
2023-02-24T02:28:05.662Z,100460.41
2023-02-24T02:30:47.572Z,100475.09
2023-02-24T02:33:40.548Z,100404.38
2023-02-24T02:36:24.134Z,100437.88
2023-02-24T02:39:18.328Z,100469.09
2023-02-24T02:42:14.418Z,100425.50
2023-02-24T02:44:59.287Z,100473.28
2023-02-24T02:47:35.066Z,100466.81
2023-02-24T02:50:10.709Z,100428.16
2023-02-24T02:52:47.182Z,100395.72
2023-02-24T02:55:32.232Z,100469.75
2023-02-24T02:58:03.077Z,100442.66
2023-02-24T03:00:37.268Z,100396.38
2023-02-24T03:03:16.456Z,100483.28
2023-02-24T03:05:49.632Z,100423.66
2023-02-24T03:08:19.085Z,100476.09
2023-02-24T03:10:51.155Z,100453.41
2023-02-24T03:13:22.453Z,100473.53
2023-02-24T03:15:52.683Z,100425.81
2023-02-24T03:18:29.205Z,100442.28
2023-02-24T03:21:20.184Z,100477.31
2023-02-24T03:23:52.006Z,100424.22
2023-02-24T03:26:41.578Z,100448.03
2023-02-24T03:29:41.986Z,100469.00
2023-02-24T03:32:18.090Z,100452.63
2023-02-24T03:35:00.219Z,100486.75
2023-02-24T03:37:30.049Z,100433.38
2023-02-24T03:40:14.675Z,100476.81
2023-02-24T03:42:46.245Z,100429.84
2023-02-24T03:45:13.669Z,100415.88
2023-02-24T03:47:41.307Z,100451.22
2023-02-24T03:50:20.421Z,100491.97
2023-02-24T03:53:01.533Z,100434.00
2023-02-24T03:55:49.938Z,100509.81
2023-02-24T03:58:54.213Z,100510.28
2023-02-24T04:01:58.115Z,100443.03
2023-02-24T04:04:38.586Z,100505.25
2023-02-24T04:07:31.443Z,100496.47
2023-02-24T04:10:12.839Z,100512.84
2023-02-24T04:12:55.820Z,100436.16
2023-02-24T04:15:26.616Z,100448.09
2023-02-24T04:18:07.991Z,100462.38
2023-02-24T04:20:35.910Z,100471.06
2023-02-24T04:23:08.913Z,100453.09
2023-02-24T04:25:36.210Z,100505.06
2023-02-24T04:28:04.359Z,100476.56
2023-02-24T04:30:35.486Z,100447.22
2023-02-24T04:33:02.668Z,100491.66
2023-02-24T04:35:29.523Z,100490.06
2023-02-24T04:37:56.754Z,100487.31
2023-02-24T04:40:23.650Z,100449.75
2023-02-24T04:42:52.712Z,100491.28
2023-02-24T04:45:31.064Z,100475.94
2023-02-24T04:48:03.469Z,100466.63
2023-02-24T04:50:33.321Z,100506.25
2023-02-24T04:53:12.462Z,100509.28
2023-02-24T04:55:42.482Z,100447.56
2023-02-24T04:58:14.585Z,100498.75
2023-02-24T05:00:42.240Z,100481.19
2023-02-24T05:03:12.090Z,100473.16
2023-02-24T05:05:39.241Z,100451.75
2023-02-24T05:08:08.988Z,100509.75
2023-02-24T05:10:41.355Z,100521.78
2023-02-24T05:13:09.297Z,100515.16
2023-02-24T05:15:40.696Z,100531.50
2023-02-24T05:18:11.296Z,100452.56
2023-02-24T05:21:01.635Z,100503.03
2023-02-24T05:23:39.357Z,100504.25
2023-02-24T05:26:09.146Z,100532.25
2023-02-24T05:28:38.228Z,100465.06
2023-02-24T05:31:08.582Z,100537.50
2023-02-24T05:33:39.561Z,100549.16
2023-02-24T05:36:08.833Z,100550.97
2023-02-24T05:38:38.429Z,100519.25
2023-02-24T05:41:16.958Z,100546.53
2023-02-24T05:43:54.980Z,100503.38
2023-02-24T05:46:28.946Z,100567.22
2023-02-24T05:48:57.076Z,100527.94
2023-02-24T05:51:36.379Z,100539.13
2023-02-24T05:54:08.609Z,100568.25
2023-02-24T05:56:38.730Z,100565.59
2023-02-24T05:59:11.368Z,100569.75
2023-02-24T06:01:42.054Z,100537.50
2023-02-24T06:04:10.000Z,100549.25
2023-02-24T06:06:39.538Z,100544.84
2023-02-24T06:09:13.153Z,100518.59
2023-02-24T06:11:41.559Z,100591.34
2023-02-24T06:14:10.679Z,100538.25
2023-02-24T06:16:40.077Z,100571.56
2023-02-24T06:19:09.358Z,100553.84
2023-02-24T06:21:41.290Z,100553.75
2023-02-24T06:24:14.716Z,100582.16
2023-02-24T06:26:45.604Z,100598.75
2023-02-24T06:29:20.821Z,100614.28
2023-02-24T06:31:48.787Z,100564.03
2023-02-24T06:34:15.665Z,100558.78
2023-02-24T06:36:43.722Z,100562.28
2023-02-24T06:39:14.655Z,100588.63
2023-02-24T06:41:42.649Z,100547.47
2023-02-24T06:44:09.691Z,100578.56
2023-02-24T06:46:37.199Z,100614.50
2023-02-24T06:49:04.090Z,100581.34
2023-02-24T06:51:31.035Z,100576.09
2023-02-24T06:53:59.631Z,100620.41
2023-02-24T06:56:27.713Z,100609.47
2023-02-24T06:58:55.977Z,100602.78
2023-02-24T07:01:28.912Z,100577.88
2023-02-24T07:04:13.261Z,100592.97
2023-02-24T07:06:41.730Z,100583.19
2023-02-24T07:09:11.224Z,100588.03
2023-02-24T07:11:41.562Z,100604.22
2023-02-24T07:14:11.396Z,100612.78
2023-02-24T07:16:41.656Z,100590.38
2023-02-24T07:19:15.653Z,100604.94
2023-02-24T07:21:50.003Z,100590.44
2023-02-24T07:24:25.570Z,100620.16
2023-02-24T07:26:57.636Z,100614.28
2023-02-24T07:29:26.100Z,100633.03
2023-02-24T07:31:56.834Z,100616.41
2023-02-24T07:34:25.371Z,100670.91
2023-02-24T07:36:53.240Z,100617.16
2023-02-24T07:39:20.633Z,100643.88
2023-02-24T07:41:49.750Z,100672.94
2023-02-24T07:44:18.951Z,100676.25
2023-02-24T07:46:49.332Z,100614.63
2023-02-24T07:49:19.921Z,100682.38
2023-02-24T07:51:53.031Z,100647.31
2023-02-24T07:54:21.389Z,100686.69
2023-02-24T07:56:56.949Z,100640.34
2023-02-24T07:59:27.451Z,100646.88
2023-02-24T08:01:56.024Z,100661.94
2023-02-24T08:04:30.172Z,100624.66
2023-02-24T08:07:03.083Z,100702.91
2023-02-24T08:09:46.652Z,100686.94
2023-02-24T08:12:22.128Z,100715.41
2023-02-24T08:14:53.647Z,100698.22
2023-02-24T08:17:23.279Z,100666.28
2023-02-24T08:20:12.152Z,100698.09
2023-02-24T08:22:47.255Z,100717.47
2023-02-24T08:25:24.348Z,100660.97
2023-02-24T08:28:07.355Z,100721.91
2023-02-24T08:30:40.973Z,100719.56
2023-02-24T08:33:10.945Z,100696.28
2023-02-24T08:35:44.992Z,100682.75
2023-02-24T08:38:16.657Z,100731.41
2023-02-24T08:40:50.604Z,100694.03
2023-02-24T08:43:30.960Z,100697.50
2023-02-24T08:46:12.708Z,100745.56
2023-02-24T08:48:46.647Z,100745.53
2023-02-24T08:51:23.089Z,100748.25
2023-02-24T08:53:53.287Z,100726.91
2023-02-24T08:56:24.522Z,100706.72
2023-02-24T08:59:06.868Z,100759.78
2023-02-24T09:01:38.184Z,100749.44
2023-02-24T09:04:13.235Z,100736.44
2023-02-24T09:06:49.061Z,100773.31
2023-02-24T09:09:19.098Z,100681.41
2023-02-24T09:11:56.537Z,100781.84
2023-02-24T09:14:29.620Z,100704.75
2023-02-24T09:17:11.640Z,100779.41
2023-02-24T09:19:41.093Z,100786.75
2023-02-24T09:22:29.770Z,100782.06
2023-02-24T09:25:21.292Z,100722.84
2023-02-24T09:27:56.487Z,100789.72
2023-02-24T09:30:36.511Z,100735.34
2023-02-24T09:33:25.990Z,100724.31
2023-02-24T09:36:13.288Z,100727.91
2023-02-24T09:39:00.504Z,100796.22
2023-02-24T09:42:05.472Z,100786.44
2023-02-24T09:44:52.786Z,100791.47
2023-02-24T09:48:02.188Z,100796.63
2023-02-24T09:51:01.653Z,100784.19
2023-02-24T09:53:29.570Z,100782.56
2023-02-24T09:56:05.301Z,100802.84
2023-02-24T09:58:59.954Z,100803.06
2023-02-24T10:01:56.179Z,100793.63
2023-02-24T10:04:49.243Z,100807.09
2023-02-24T10:07:22.543Z,100796.34
2023-02-24T10:10:31.426Z,100809.59
2023-02-24T10:13:14.116Z,100726.66
2023-02-24T10:15:58.518Z,100750.97
2023-02-24T10:18:31.917Z,100801.69
2023-02-24T10:21:01.297Z,100793.69
2023-02-24T10:23:46.082Z,100794.13
2023-02-24T10:26:31.990Z,100819.78
2023-02-24T10:29:25.690Z,100817.63
2023-02-24T10:31:58.086Z,100807.88
2023-02-24T10:34:31.953Z,100805.56
2023-02-24T10:37:01.937Z,100744.56
2023-02-24T10:39:33.419Z,100767.97
2023-02-24T10:42:17.716Z,100807.13
2023-02-24T10:45:01.729Z,100758.03
2023-02-24T10:47:31.337Z,100812.81
2023-02-24T10:50:00.435Z,100753.72
2023-02-24T10:52:37.375Z,100808.16
2023-02-24T10:55:28.486Z,100762.97
2023-02-24T10:58:08.286Z,100779.75
2023-02-24T11:01:05.795Z,100740.84
2023-02-24T11:03:41.816Z,100781.44
2023-02-24T11:06:50.422Z,100762.97
2023-02-24T11:09:27.495Z,100818.06
2023-02-24T11:12:42.833Z,100777.47
2023-02-24T11:16:02.117Z,100821.97
2023-02-24T11:18:30.810Z,100812.69
2023-02-24T11:21:04.859Z,100794.28
2023-02-24T11:23:45.079Z,100764.31
2023-02-24T11:26:19.005Z,100820.19
2023-02-24T11:28:49.538Z,100830.53
2023-02-24T11:31:28.467Z,100827.06
2023-02-24T11:34:33.779Z,100831.97
2023-02-24T11:37:22.811Z,100845.75
2023-02-24T11:40:09.537Z,100845.16
2023-02-24T11:42:51.867Z,100814.31
2023-02-24T11:45:33.784Z,100791.78
2023-02-24T11:48:14.934Z,100825.59
2023-02-24T11:50:50.476Z,100844.94
2023-02-24T11:53:37.017Z,100850.25
2023-02-24T11:56:13.369Z,100793.28
2023-02-24T11:58:56.078Z,100779.75
2023-02-24T12:01:37.919Z,100776.06
2023-02-24T12:04:19.489Z,100854.84
2023-02-24T12:07:07.744Z,100865.78
2023-02-24T12:09:53.756Z,100842.94
2023-02-24T12:12:42.672Z,100878.38
2023-02-24T12:15:35.446Z,100863.41
2023-02-24T12:18:36.032Z,100831.06
2023-02-24T12:21:36.580Z,100870.16
2023-02-24T12:24:08.711Z,100793.75
2023-02-24T12:27:06.307Z,100855.59
2023-02-24T12:29:54.768Z,100858.31
2023-02-24T12:32:27.560Z,100873.63
2023-02-24T12:34:57.444Z,100871.03
2023-02-24T12:37:32.825Z,100851.13
2023-02-24T12:40:28.953Z,100875.47
2023-02-24T12:43:17.456Z,100871.56
2023-02-24T12:46:07.260Z,100876.78
2023-02-24T12:48:42.956Z,100873.84
2023-02-24T12:51:25.666Z,100877.56
2023-02-24T12:54:11.646Z,100882.13
2023-02-24T12:56:43.003Z,100894.25
2023-02-24T12:59:14.817Z,100815.59
2023-02-24T13:01:54.238Z,100848.88
2023-02-24T13:04:42.894Z,100878.97
2023-02-24T13:07:12.568Z,100884.44
2023-02-24T13:10:04.115Z,100826.41
2023-02-24T13:12:41.749Z,100829.34
2023-02-24T13:15:21.425Z,100874.63
2023-02-24T13:17:51.772Z,100869.84
2023-02-24T13:20:30.603Z,100872.19
2023-02-24T13:22:59.184Z,100796.97
2023-02-24T13:25:34.132Z,100874.06
2023-02-24T13:28:04.645Z,100825.00
2023-02-24T13:30:44.938Z,100873.56
2023-02-24T13:33:17.637Z,100900.34
2023-02-24T13:35:45.919Z,100886.81
2023-02-24T13:38:27.106Z,100883.75
2023-02-24T13:40:54.009Z,100838.22
2023-02-24T13:43:25.061Z,100888.94
2023-02-24T13:45:58.491Z,100859.09
2023-02-24T13:48:46.798Z,100882.28
2023-02-24T13:51:28.651Z,100888.38
2023-02-24T13:54:33.950Z,100886.53
2023-02-24T13:57:20.889Z,100886.88
2023-02-24T13:59:59.298Z,100880.91
2023-02-24T14:02:31.304Z,100845.38
2023-02-24T14:05:07.959Z,100861.69
2023-02-24T14:07:38.601Z,100874.19
2023-02-24T14:10:19.324Z,100887.16
2023-02-24T14:12:48.407Z,100889.44
2023-02-24T14:15:24.892Z,100902.47
2023-02-24T14:18:00.353Z,100878.88
2023-02-24T14:20:31.146Z,100844.59
2023-02-24T14:22:59.544Z,100864.28
2023-02-24T14:25:34.667Z,100874.13
2023-02-24T14:28:01.870Z,100837.94
2023-02-24T14:30:39.399Z,100895.06
2023-02-24T14:33:16.362Z,100872.09
2023-02-24T14:35:47.096Z,100875.59
2023-02-24T14:38:29.121Z,100904.88
2023-02-24T14:40:55.875Z,100822.63
2023-02-24T14:43:22.605Z,100826.19
2023-02-24T14:45:51.541Z,100893.50
2023-02-24T14:48:29.575Z,100832.09
2023-02-24T14:51:02.947Z,100838.66
2023-02-24T14:53:34.062Z,100822.00
2023-02-24T14:56:04.002Z,100836.53
2023-02-24T14:58:40.766Z,100911.59
2023-02-24T15:01:20.188Z,100864.50
2023-02-24T15:03:50.370Z,100852.78
2023-02-24T15:06:25.335Z,100907.66
2023-02-24T15:09:21.127Z,100920.75
2023-02-24T15:11:49.048Z,100921.16
2023-02-24T15:14:26.770Z,100862.16
2023-02-24T15:17:00.211Z,100859.53
2023-02-24T15:19:44.247Z,100914.88
2023-02-24T15:22:29.646Z,100921.72
2023-02-24T15:25:16.496Z,100921.31
2023-02-24T15:27:57.415Z,100912.28
2023-02-24T15:30:36.142Z,100887.22
2023-02-24T15:33:21.361Z,100898.53
2023-02-24T15:35:57.443Z,100921.75
2023-02-24T15:38:30.595Z,100898.75
2023-02-24T15:41:00.437Z,100855.22
2023-02-24T15:43:48.698Z,100935.13
2023-02-24T15:46:18.549Z,100920.66
2023-02-24T15:48:47.710Z,100940.66
2023-02-24T15:51:32.539Z,100885.91
2023-02-24T15:54:01.819Z,100919.19
2023-02-24T15:56:29.474Z,100891.88
2023-02-24T15:58:56.216Z,100890.91
2023-02-24T16:01:23.002Z,100870.22
2023-02-24T16:03:49.841Z,100902.78
2023-02-24T16:06:22.173Z,100958.56
2023-02-24T16:08:52.164Z,100891.56
2023-02-24T16:11:22.924Z,100900.34
2023-02-24T16:13:56.147Z,100897.88
2023-02-24T16:16:23.304Z,100964.50
2023-02-24T16:18:51.264Z,100880.38
2023-02-24T16:21:19.546Z,100914.16
2023-02-24T16:23:46.273Z,100973.09
2023-02-24T16:26:23.488Z,100959.31
2023-02-24T16:28:59.318Z,100945.78
2023-02-24T16:31:27.041Z,100971.75
2023-02-24T16:33:56.019Z,100929.56
2023-02-24T16:36:28.181Z,100959.78
2023-02-24T16:38:55.368Z,100959.59
2023-02-24T16:41:22.099Z,100927.88
2023-02-24T16:43:48.819Z,100965.66
2023-02-24T16:46:23.623Z,100952.16
2023-02-24T16:48:53.612Z,100984.66
2023-02-24T16:51:21.837Z,100997.47
2023-02-24T16:53:48.556Z,100964.94
2023-02-24T16:56:15.939Z,100951.44
2023-02-24T16:58:42.771Z,100984.84
2023-02-24T17:01:18.143Z,100966.09
2023-02-24T17:03:47.237Z,101023.69
2023-02-24T17:06:14.065Z,100948.16
2023-02-24T17:08:45.786Z,100970.91
2023-02-24T17:11:14.707Z,101017.13
2023-02-24T17:13:42.024Z,101028.38
2023-02-24T17:16:08.777Z,100956.19
2023-02-24T17:18:35.724Z,100955.97
2023-02-24T17:21:03.612Z,100980.97
2023-02-24T17:23:30.353Z,100979.31
2023-02-24T17:26:00.485Z,100953.69
2023-02-24T17:28:27.988Z,101028.34
2023-02-24T17:30:54.860Z,101023.28
2023-02-24T17:33:21.712Z,100995.75
2023-02-24T17:35:48.537Z,101036.16
2023-02-24T17:38:18.752Z,101027.63
2023-02-24T17:40:46.474Z,100986.47
2023-02-24T17:43:14.184Z,101048.38
2023-02-24T17:45:44.487Z,100991.53
2023-02-24T17:48:13.077Z,101049.34
2023-02-24T17:50:44.495Z,100960.63
2023-02-24T17:53:11.907Z,101057.13
2023-02-24T17:55:40.331Z,100987.78
2023-02-24T17:58:08.940Z,101017.00
2023-02-24T18:00:35.696Z,101021.13
2023-02-24T18:03:03.648Z,101007.34
2023-02-24T18:05:30.411Z,100973.91
2023-02-24T18:08:00.427Z,100989.34
2023-02-24T18:10:27.489Z,101031.50
2023-02-24T18:12:54.496Z,101057.34
2023-02-24T18:15:21.330Z,101010.03
2023-02-24T18:17:48.066Z,101074.56
2023-02-24T18:20:14.868Z,101017.94
2023-02-24T18:22:41.614Z,101034.25
2023-02-24T18:25:08.556Z,101032.56
2023-02-24T18:27:35.418Z,101036.09
2023-02-24T18:30:08.857Z,101010.16
2023-02-24T18:32:36.194Z,101030.06
2023-02-24T18:35:03.106Z,101067.13
2023-02-24T18:37:29.922Z,101043.84
2023-02-24T18:39:56.661Z,101020.59
2023-02-24T18:42:23.395Z,101067.97
2023-02-24T18:44:50.104Z,101074.00
2023-02-24T18:47:16.820Z,101055.09
2023-02-24T18:49:43.600Z,101039.69
2023-02-24T18:52:11.679Z,101063.78
2023-02-24T18:54:38.492Z,101073.28
2023-02-24T18:57:05.313Z,101090.53
2023-02-24T18:59:32.032Z,101128.53
2023-02-24T19:01:59.005Z,101061.31
2023-02-24T19:04:25.805Z,101094.13
2023-02-24T19:06:52.681Z,101047.56
2023-02-24T19:09:21.852Z,101100.88
2023-02-24T19:11:50.119Z,101114.69
2023-02-24T19:14:17.801Z,101138.81
2023-02-24T19:16:45.220Z,101069.97
2023-02-24T19:19:16.595Z,101134.53
2023-02-24T19:21:45.701Z,101139.69
2023-02-24T19:24:13.983Z,101076.88
2023-02-24T19:26:42.838Z,101093.28
2023-02-24T19:29:11.569Z,101113.78
2023-02-24T19:34:23.756Z,101114.78
2023-02-24T19:36:50.536Z,101163.00
2023-02-24T19:39:17.726Z,101110.47
2023-02-24T19:41:44.832Z,101073.34
2023-02-24T19:44:11.885Z,101156.03
2023-02-24T19:46:39.448Z,101121.63
2023-02-24T19:49:06.782Z,101112.09
2023-02-24T19:51:33.516Z,101140.50
2023-02-24T19:54:08.431Z,101154.22
2023-02-24T19:56:36.784Z,101122.47
2023-02-24T19:59:06.105Z,101151.81
2023-02-24T20:01:32.904Z,101109.63
2023-02-24T20:04:02.137Z,101119.03
2023-02-24T20:06:35.823Z,101184.56
2023-02-24T20:09:09.017Z,101161.22
2023-02-24T20:11:36.766Z,101193.19
2023-02-24T20:14:04.266Z,101133.75
2023-02-24T20:16:34.985Z,101194.03
2023-02-24T20:19:02.400Z,101154.47
2023-02-24T20:21:30.066Z,101194.09
2023-02-24T20:24:00.943Z,101155.31
2023-02-24T20:26:29.069Z,101192.41
2023-02-24T20:28:56.532Z,101186.38
2023-02-24T20:31:24.115Z,101140.66
2023-02-24T20:33:51.546Z,101203.56
2023-02-24T20:36:19.862Z,101201.03
2023-02-24T20:38:46.982Z,101193.28
2023-02-24T20:41:13.908Z,101113.91
2023-02-24T20:43:40.700Z,101169.97
2023-02-24T20:46:14.533Z,101116.50
2023-02-24T20:48:41.539Z,101149.25
2023-02-24T20:51:09.561Z,101198.31
2023-02-24T20:53:55.662Z,101151.84
2023-02-24T20:56:23.961Z,101144.84
2023-02-24T20:59:05.089Z,101194.03
2023-02-24T21:01:33.233Z,101167.38
2023-02-24T21:04:00.626Z,101133.72
2023-02-24T21:06:28.300Z,101208.75
2023-02-24T21:08:55.654Z,101126.84
2023-02-24T21:11:22.469Z,101211.28
2023-02-24T21:13:50.340Z,101192.34
2023-02-24T21:16:18.791Z,101176.84
2023-02-24T21:18:47.455Z,101217.25
2023-02-24T21:21:15.406Z,101181.19
2023-02-24T21:23:42.920Z,101205.31
2023-02-24T21:26:10.836Z,101212.19
2023-02-24T21:28:38.510Z,101160.44
2023-02-24T21:31:10.802Z,101238.00
2023-02-24T21:33:38.488Z,101188.16
2023-02-24T21:36:09.324Z,101198.38
2023-02-24T21:38:37.831Z,101224.13
2023-02-24T21:41:09.650Z,101201.81
2023-02-24T21:43:37.900Z,101225.09
2023-02-24T21:46:06.654Z,101151.88
2023-02-24T21:48:33.972Z,101220.88
2023-02-24T21:51:04.306Z,101234.63
2023-02-24T21:53:35.873Z,101157.09
2023-02-24T21:56:16.473Z,101236.41
2023-02-24T21:59:00.734Z,101236.38
2023-02-24T22:01:44.140Z,101243.25
2023-02-24T22:04:15.372Z,101259.72
2023-02-24T22:06:44.739Z,101251.88
2023-02-24T22:09:15.674Z,101257.06
2023-02-24T22:11:42.330Z,101202.75
2023-02-24T22:14:10.893Z,101245.78
2023-02-24T22:16:38.422Z,101189.88
2023-02-24T22:19:05.229Z,101244.03
2023-02-24T22:21:32.595Z,101225.94
2023-02-24T22:24:02.256Z,101237.16
2023-02-24T22:26:30.916Z,101246.56
2023-02-24T22:28:58.623Z,101240.59
2023-02-24T22:31:28.034Z,101228.59
2023-02-24T22:33:54.845Z,101276.00
2023-02-24T22:36:25.333Z,101231.19
2023-02-24T22:38:52.959Z,101182.81
2023-02-24T22:41:31.759Z,101229.31
2023-02-24T22:43:59.428Z,101178.63
2023-02-24T22:46:32.245Z,101218.31
2023-02-24T22:48:59.589Z,101251.03
2023-02-24T22:51:27.040Z,101269.97
2023-02-24T22:53:54.606Z,101275.22
2023-02-24T22:56:24.676Z,101271.78
2023-02-24T22:58:59.065Z,101210.56
2023-02-24T23:01:44.755Z,101264.84
2023-02-24T23:04:19.796Z,101258.81
2023-02-24T23:06:47.659Z,101219.13
2023-02-24T23:09:19.912Z,101237.44
2023-02-24T23:11:47.697Z,101266.59
2023-02-24T23:14:16.438Z,101255.38
2023-02-24T23:16:46.546Z,101281.31
2023-02-24T23:19:17.964Z,101266.59
2023-02-24T23:21:51.056Z,101272.56
2023-02-24T23:24:19.966Z,101224.34
2023-02-24T23:26:51.450Z,101225.22
2023-02-24T23:29:18.878Z,101284.75
2023-02-24T23:31:46.633Z,101230.41
2023-02-24T23:34:14.570Z,101250.19
2023-02-24T23:36:43.792Z,101272.66
2023-02-24T23:39:13.198Z,101223.50
2023-02-24T23:41:41.427Z,101260.63
2023-02-24T23:44:08.526Z,101257.97
2023-02-24T23:46:36.215Z,101232.94
2023-02-24T23:49:03.846Z,101294.16
2023-02-24T23:51:45.808Z,101273.53
2023-02-24T23:54:13.961Z,101301.13
2023-02-24T23:56:42.427Z,101265.75
2023-02-24T23:59:09.128Z,101269.31
